createdAt,value
2019-02-17T00:00:59.299Z,96216.88
2019-02-17T00:03:26.755Z,96216.16
2019-02-17T00:05:54.221Z,96223.45
2019-02-17T00:08:21.582Z,96220.94
2019-02-17T00:10:49.053Z,96219.67
2019-02-17T00:13:16.617Z,96219.09
2019-02-17T00:15:44.361Z,96219.16
2019-02-17T00:18:11.865Z,96221.59
2019-02-17T00:20:39.366Z,96221.92
2019-02-17T00:23:06.839Z,96223.25
2019-02-17T00:25:34.354Z,96214.01
2019-02-17T00:28:01.888Z,96209.62
2019-02-17T00:30:29.483Z,96212.67
2019-02-17T00:32:56.912Z,96217.14
2019-02-17T00:35:24.360Z,96217.75
2019-02-17T00:37:51.787Z,96218.17
2019-02-17T00:40:19.252Z,96213.01
2019-02-17T00:42:46.661Z,96213.84
2019-02-17T00:45:14.134Z,96207.37
2019-02-17T00:47:41.578Z,96204.71
2019-02-17T00:50:09.456Z,96205.53
2019-02-17T00:52:36.849Z,96205.63
2019-02-17T00:55:04.701Z,96199.28
2019-02-17T00:57:32.133Z,96193.33
2019-02-17T00:59:59.641Z,96204.03
2019-02-17T01:02:27.176Z,96194.05
2019-02-17T01:04:54.646Z,96204.75
2019-02-17T01:07:22.021Z,96193.44
2019-02-17T01:09:49.473Z,96193.33
2019-02-17T01:12:16.902Z,96194.44
2019-02-17T01:14:44.362Z,96192.30
2019-02-17T01:17:11.766Z,96187.22
2019-02-17T01:19:39.225Z,96192.80
2019-02-17T01:22:06.712Z,96179.80
2019-02-17T01:24:34.276Z,96180.09
2019-02-17T01:27:01.730Z,96176.69
2019-02-17T01:29:29.533Z,96173.34
2019-02-17T01:31:57.032Z,96172.56
2019-02-17T01:34:24.473Z,96171.78
2019-02-17T01:36:51.942Z,96173.54
2019-02-17T01:39:19.386Z,96179.29
2019-02-17T01:41:46.842Z,96171.74
2019-02-17T01:44:14.278Z,96174.87
2019-02-17T01:46:41.744Z,96173.44
2019-02-17T01:49:09.193Z,96170.67
2019-02-17T01:51:36.602Z,96169.89
2019-02-17T01:54:04.058Z,96174.31
2019-02-17T01:56:31.522Z,96171.48
2019-02-17T01:58:58.909Z,96169.86
2019-02-17T02:01:26.390Z,96165.80
2019-02-17T02:03:53.820Z,96164.20
2019-02-17T02:06:21.297Z,96159.10
2019-02-17T02:08:48.800Z,96158.42
2019-02-17T02:11:16.442Z,96163.09
2019-02-17T02:13:44.073Z,96153.41
2019-02-17T02:16:11.546Z,96158.26
2019-02-17T02:18:39.391Z,96151.20
2019-02-17T02:21:09.909Z,96157.34
2019-02-17T02:23:37.461Z,96151.01
2019-02-17T02:26:04.896Z,96160.02
2019-02-17T02:28:32.783Z,96152.92
2019-02-17T02:31:00.454Z,96143.30
2019-02-17T02:33:27.983Z,96150.06
2019-02-17T02:35:55.387Z,96143.73
2019-02-17T02:38:22.876Z,96148.83
2019-02-17T02:40:50.305Z,96143.97
2019-02-17T02:43:17.821Z,96145.37
2019-02-17T02:45:45.265Z,96159.00
2019-02-17T02:48:12.674Z,96147.09
2019-02-17T02:50:40.072Z,96150.70
2019-02-17T02:53:07.505Z,96150.16
2019-02-17T02:55:34.984Z,96148.83
2019-02-17T02:58:02.491Z,96153.55
2019-02-17T03:00:29.890Z,96155.91
2019-02-17T03:02:57.346Z,96146.17
2019-02-17T03:05:24.841Z,96149.34
2019-02-17T03:07:52.226Z,96150.39
2019-02-17T03:10:19.687Z,96140.84
2019-02-17T03:12:47.157Z,96141.78
2019-02-17T03:15:14.565Z,96137.26
2019-02-17T03:17:41.991Z,96140.28
2019-02-17T03:20:09.849Z,96137.65
2019-02-17T03:22:37.259Z,96134.98
2019-02-17T03:25:05.039Z,96128.39
2019-02-17T03:27:32.466Z,96125.78
2019-02-17T03:30:05.189Z,96131.30
2019-02-17T03:32:29.309Z,96129.56
2019-02-17T03:34:56.751Z,96135.12
2019-02-17T03:37:24.248Z,96133.84
2019-02-17T03:39:51.700Z,96139.32
2019-02-17T03:42:19.155Z,96133.99
2019-02-17T03:44:46.609Z,96125.06
2019-02-17T03:47:14.085Z,96134.64
2019-02-17T03:49:41.462Z,96135.20
2019-02-17T03:52:08.982Z,96135.09
2019-02-17T03:54:36.431Z,96131.00
2019-02-17T03:57:03.893Z,96138.44
2019-02-17T03:59:31.322Z,96142.98
2019-02-17T04:01:58.834Z,96138.56
2019-02-17T04:04:26.248Z,96137.23
2019-02-17T04:06:53.781Z,96139.63
2019-02-17T04:09:21.261Z,96136.89
2019-02-17T04:11:48.632Z,96131.91
2019-02-17T04:14:16.087Z,96137.05
2019-02-17T04:16:43.627Z,96138.28
2019-02-17T04:19:11.099Z,96135.98
2019-02-17T04:21:38.525Z,96130.58
2019-02-17T04:24:06.012Z,96131.95
2019-02-17T04:26:33.608Z,96129.45
2019-02-17T04:29:01.168Z,96133.53
2019-02-17T04:31:28.599Z,96136.73
2019-02-17T04:33:56.032Z,96123.15
2019-02-17T04:36:23.380Z,96128.52
2019-02-17T04:38:50.792Z,96125.69
2019-02-17T04:41:18.212Z,96131.60
2019-02-17T04:43:45.659Z,96128.83
2019-02-17T04:46:13.026Z,96139.47
2019-02-17T04:48:40.500Z,96127.50
2019-02-17T04:51:07.927Z,96132.43
2019-02-17T04:53:35.301Z,96140.61
2019-02-17T04:56:02.803Z,96140.02
2019-02-17T04:58:30.242Z,96139.70
2019-02-17T05:00:57.690Z,96148.02
2019-02-17T05:03:25.098Z,96137.48
2019-02-17T05:05:52.549Z,96139.11
2019-02-17T05:08:19.993Z,96144.44
2019-02-17T05:10:47.349Z,96150.80
2019-02-17T05:13:14.782Z,96148.12
2019-02-17T05:15:42.246Z,96142.27
2019-02-17T05:18:09.686Z,96149.45
2019-02-17T05:20:37.127Z,96152.13
2019-02-17T05:23:04.631Z,96147.16
2019-02-17T05:25:32.119Z,96157.72
2019-02-17T05:27:59.702Z,96152.70
2019-02-17T05:30:27.257Z,96165.51
2019-02-17T05:32:54.667Z,96164.69
2019-02-17T05:35:22.089Z,96164.96
2019-02-17T05:37:49.634Z,96167.27
2019-02-17T05:40:17.017Z,96175.32
2019-02-17T05:42:44.507Z,96180.09
2019-02-17T05:45:12.108Z,96182.27
2019-02-17T05:47:39.560Z,96190.81
2019-02-17T05:50:06.948Z,96179.59
2019-02-17T05:52:34.477Z,96190.36
2019-02-17T05:55:01.933Z,96191.39
2019-02-17T05:57:29.365Z,96195.42
2019-02-17T05:59:56.883Z,96197.03
2019-02-17T06:02:24.726Z,96193.90
2019-02-17T06:04:52.379Z,96192.28
2019-02-17T06:07:19.957Z,96182.22
2019-02-17T06:09:47.522Z,96193.02
2019-02-17T06:12:14.949Z,96192.70
2019-02-17T06:14:42.629Z,96197.01
2019-02-17T06:17:10.076Z,96202.12
2019-02-17T06:19:37.512Z,96194.23
2019-02-17T06:22:05.185Z,96192.42
2019-02-17T06:24:32.792Z,96197.37
2019-02-17T06:27:00.154Z,96195.84
2019-02-17T06:29:27.734Z,96191.11
2019-02-17T06:31:55.293Z,96187.59
2019-02-17T06:34:22.666Z,96189.13
2019-02-17T06:36:50.128Z,96194.12
2019-02-17T06:39:17.615Z,96196.30
2019-02-17T06:41:45.048Z,96196.53
2019-02-17T06:44:12.505Z,96194.72
2019-02-17T06:46:44.967Z,96197.20
2019-02-17T06:49:12.361Z,96201.05
2019-02-17T06:51:39.822Z,96213.23
2019-02-17T06:54:07.245Z,96209.78
2019-02-17T06:56:44.823Z,96209.12
2019-02-17T06:59:12.248Z,96213.97
2019-02-17T07:01:39.618Z,96210.30
2019-02-17T07:04:07.027Z,96218.23
2019-02-17T07:06:44.036Z,96218.55
2019-02-17T07:09:11.522Z,96218.42
2019-02-17T07:11:39.020Z,96211.14
2019-02-17T07:14:06.412Z,96213.34
2019-02-17T07:16:33.943Z,96210.48
2019-02-17T07:19:01.384Z,96218.04
2019-02-17T07:21:28.973Z,96209.34
2019-02-17T07:23:56.522Z,96223.14
2019-02-17T07:26:24.227Z,96217.75
2019-02-17T07:28:51.761Z,96212.52
2019-02-17T07:31:19.234Z,96210.75
2019-02-17T07:33:46.747Z,96218.03
2019-02-17T07:36:14.220Z,96213.27
2019-02-17T07:38:41.648Z,96214.45
2019-02-17T07:41:09.122Z,96208.59
2019-02-17T07:43:36.516Z,96212.08
2019-02-17T07:46:04.093Z,96206.34
2019-02-17T07:48:31.821Z,96208.69
2019-02-17T07:50:59.265Z,96212.70
2019-02-17T07:53:26.746Z,96210.95
2019-02-17T07:55:54.219Z,96206.27
2019-02-17T07:58:21.637Z,96207.06
2019-02-17T08:00:49.068Z,96202.89
2019-02-17T08:03:16.507Z,96214.53
2019-02-17T08:05:43.988Z,96195.89
2019-02-17T08:08:11.510Z,96202.95
2019-02-17T08:10:38.963Z,96193.30
2019-02-17T08:13:06.347Z,96191.03
2019-02-17T08:15:33.728Z,96192.59
2019-02-17T08:18:01.178Z,96190.16
2019-02-17T08:20:30.928Z,96194.60
2019-02-17T08:22:58.373Z,96193.15
2019-02-17T08:25:25.864Z,96190.93
2019-02-17T08:27:53.377Z,96191.91
2019-02-17T08:30:20.830Z,96194.78
2019-02-17T08:32:48.237Z,96199.20
2019-02-17T08:35:15.814Z,96205.05
2019-02-17T08:37:43.461Z,96201.36
2019-02-17T08:40:11.065Z,96194.89
2019-02-17T08:42:38.595Z,96196.94
2019-02-17T08:45:07.663Z,96198.21
2019-02-17T08:47:35.949Z,96192.79
2019-02-17T08:50:04.749Z,96195.63
2019-02-17T08:52:32.207Z,96186.72
2019-02-17T08:54:59.692Z,96180.94
2019-02-17T08:57:27.174Z,96182.47
2019-02-17T08:59:54.648Z,96181.77
2019-02-17T09:02:22.148Z,96187.28
2019-02-17T09:04:49.560Z,96184.64
2019-02-17T09:07:17.144Z,96187.06
2019-02-17T09:09:44.771Z,96181.95
2019-02-17T09:12:12.222Z,96173.55
2019-02-17T09:14:39.591Z,96174.44
2019-02-17T09:17:07.044Z,96182.70
2019-02-17T09:19:34.582Z,96178.82
2019-02-17T09:22:02.019Z,96173.77
2019-02-17T09:24:29.448Z,96177.19
2019-02-17T09:26:56.942Z,96179.73
2019-02-17T09:29:24.968Z,96179.81
2019-02-17T09:31:52.358Z,96169.09
2019-02-17T09:34:19.861Z,96170.19
2019-02-17T09:36:47.403Z,96163.73
2019-02-17T09:39:14.922Z,96167.50
2019-02-17T09:41:42.354Z,96167.64
2019-02-17T09:44:09.797Z,96170.38
2019-02-17T09:46:37.243Z,96173.05
2019-02-17T09:49:04.741Z,96167.61
2019-02-17T09:51:32.171Z,96160.71
2019-02-17T09:53:59.652Z,96160.45
2019-02-17T09:56:27.068Z,96156.36
2019-02-17T09:58:54.818Z,96151.56
2019-02-17T10:01:22.269Z,96151.20
2019-02-17T10:03:49.659Z,96146.86
2019-02-17T10:06:17.954Z,96137.24
2019-02-17T10:08:45.366Z,96136.53
2019-02-17T10:11:14.054Z,96130.63
2019-02-17T10:13:41.577Z,96124.44
2019-02-17T10:16:09.152Z,96119.48
2019-02-17T10:18:36.739Z,96121.97
2019-02-17T10:21:04.377Z,96123.49
2019-02-17T10:23:31.773Z,96118.23
2019-02-17T10:25:59.315Z,96114.43
2019-02-17T10:28:26.838Z,96103.14
2019-02-17T10:30:54.411Z,96104.58
2019-02-17T10:33:23.023Z,96097.58
2019-02-17T10:35:50.413Z,96101.68
2019-02-17T10:38:18.035Z,96101.73
2019-02-17T10:40:46.302Z,96090.84
2019-02-17T10:43:14.329Z,96086.45
2019-02-17T10:45:41.803Z,96087.70
2019-02-17T10:48:09.230Z,96078.11
2019-02-17T10:50:36.625Z,96073.34
2019-02-17T10:53:04.308Z,96065.01
2019-02-17T10:55:31.823Z,96063.42
2019-02-17T10:57:59.361Z,96050.18
2019-02-17T11:00:28.829Z,96056.21
2019-02-17T11:03:02.842Z,96055.73
2019-02-17T11:05:30.324Z,96054.34
2019-02-17T11:07:57.783Z,96046.63
2019-02-17T11:10:25.231Z,96043.08
2019-02-17T11:12:52.672Z,96049.68
2019-02-17T11:15:20.207Z,96038.16
2019-02-17T11:17:47.623Z,96040.14
2019-02-17T11:20:15.084Z,96037.13
2019-02-17T11:22:42.542Z,96025.06
2019-02-17T11:25:10.051Z,96020.39
2019-02-17T11:27:37.599Z,96010.22
2019-02-17T11:30:06.937Z,96002.73
2019-02-17T11:32:34.469Z,95997.84
2019-02-17T11:35:02.381Z,95998.64
2019-02-17T11:37:30.023Z,95988.50
2019-02-17T11:39:57.511Z,95988.71
2019-02-17T11:42:25.242Z,95988.96
2019-02-17T11:44:52.791Z,95987.30
2019-02-17T11:47:20.288Z,95982.01
2019-02-17T11:49:48.013Z,95975.11
2019-02-17T11:52:15.842Z,95973.72
2019-02-17T11:54:43.258Z,95975.73
2019-02-17T11:57:10.793Z,95968.14
2019-02-17T11:59:38.161Z,95962.84
2019-02-17T12:02:05.721Z,95955.72
2019-02-17T12:04:33.864Z,95954.64
2019-02-17T12:07:01.702Z,95959.98
2019-02-17T12:09:29.072Z,95948.98
2019-02-17T12:11:56.851Z,95952.92
2019-02-17T12:14:32.857Z,95942.28
2019-02-17T12:17:00.571Z,95947.86
2019-02-17T12:19:28.048Z,95942.09
2019-02-17T12:22:15.093Z,95939.20
2019-02-17T12:24:49.817Z,95942.30
2019-02-17T12:27:25.554Z,95925.99
2019-02-17T12:29:57.348Z,95923.72
2019-02-17T12:32:29.051Z,95926.52
2019-02-17T12:34:56.608Z,95927.73
2019-02-17T12:37:24.058Z,95920.63
2019-02-17T12:39:51.524Z,95923.17
2019-02-17T12:42:19.006Z,95913.80
2019-02-17T12:44:46.575Z,95903.25
2019-02-17T12:47:14.165Z,95911.02
2019-02-17T12:49:41.573Z,95897.86
2019-02-17T12:52:09.047Z,95899.73
2019-02-17T12:54:36.515Z,95896.19
2019-02-17T12:57:04.011Z,95895.72
2019-02-17T12:59:31.439Z,95885.15
2019-02-17T13:01:59.203Z,95879.69
2019-02-17T13:04:26.596Z,95884.48
2019-02-17T13:06:54.053Z,95871.31
2019-02-17T13:09:21.517Z,95876.26
2019-02-17T13:11:48.884Z,95884.47
2019-02-17T13:14:16.337Z,95875.50
2019-02-17T13:16:43.796Z,95874.66
2019-02-17T13:19:11.224Z,95882.03
2019-02-17T13:21:38.712Z,95871.16
2019-02-17T13:24:06.062Z,95868.29
2019-02-17T13:26:33.513Z,95873.75
2019-02-17T13:29:00.986Z,95869.75
2019-02-17T13:31:28.454Z,95868.52
2019-02-17T13:33:55.839Z,95872.59
2019-02-17T13:36:23.437Z,95861.02
2019-02-17T13:38:50.938Z,95861.47
2019-02-17T13:41:18.499Z,95857.41
2019-02-17T13:43:45.882Z,95867.84
2019-02-17T13:46:13.480Z,95865.18
2019-02-17T13:48:40.992Z,95864.56
2019-02-17T13:51:08.465Z,95856.17
2019-02-17T13:53:35.971Z,95856.23
2019-02-17T13:56:03.425Z,95855.98
2019-02-17T13:58:30.882Z,95850.91
2019-02-17T14:00:58.570Z,95849.73
2019-02-17T14:03:26.027Z,95848.52
2019-02-17T14:05:53.460Z,95856.94
2019-02-17T14:08:21.054Z,95848.38
2019-02-17T14:10:48.477Z,95854.78
2019-02-17T14:13:15.936Z,95847.34
2019-02-17T14:15:45.648Z,95840.95
2019-02-17T14:18:13.137Z,95852.82
2019-02-17T14:20:40.617Z,95838.87
2019-02-17T14:23:08.043Z,95844.97
2019-02-17T14:25:35.567Z,95846.87
2019-02-17T14:28:03.222Z,95843.27
2019-02-17T14:30:30.780Z,95845.36
2019-02-17T14:32:58.140Z,95839.34
2019-02-17T14:35:25.632Z,95839.20
2019-02-17T14:37:53.071Z,95833.91
2019-02-17T14:40:20.754Z,95832.68
2019-02-17T14:42:48.209Z,95831.39
2019-02-17T14:45:15.691Z,95833.91
2019-02-17T14:47:43.256Z,95826.25
2019-02-17T14:50:10.860Z,95820.71
2019-02-17T14:52:38.303Z,95825.34
2019-02-17T14:55:05.852Z,95821.27
2019-02-17T14:57:33.282Z,95816.09
2019-02-17T15:00:00.729Z,95814.80
2019-02-17T15:02:28.117Z,95803.52
2019-02-17T15:04:55.568Z,95821.55
2019-02-17T15:07:23.026Z,95820.25
2019-02-17T15:09:50.391Z,95812.36
2019-02-17T15:12:17.834Z,95811.48
2019-02-17T15:14:45.809Z,95819.16
2019-02-17T15:17:14.784Z,95822.08
2019-02-17T15:19:42.528Z,95816.86
2019-02-17T15:22:09.970Z,95815.91
2019-02-17T15:24:37.337Z,95815.03
2019-02-17T15:27:04.786Z,95817.09
2019-02-17T15:29:32.277Z,95820.33
2019-02-17T15:31:59.945Z,95813.38
2019-02-17T15:34:27.431Z,95817.25
2019-02-17T15:36:54.827Z,95815.70
2019-02-17T15:39:22.310Z,95809.51
2019-02-17T15:41:49.739Z,95814.16
2019-02-17T15:44:17.166Z,95821.05
2019-02-17T15:46:44.666Z,95812.39
2019-02-17T15:49:12.245Z,95817.28
2019-02-17T15:51:39.630Z,95822.61
2019-02-17T15:54:07.097Z,95826.92
2019-02-17T15:56:34.554Z,95821.58
2019-02-17T15:59:01.924Z,95822.66
2019-02-17T16:01:29.367Z,95832.02
2019-02-17T16:03:56.800Z,95840.52
2019-02-17T16:06:24.147Z,95837.25
2019-02-17T16:08:52.410Z,95841.37
2019-02-17T16:11:19.945Z,95838.60
2019-02-17T16:13:47.313Z,95843.25
2019-02-17T16:16:14.737Z,95851.01
2019-02-17T16:18:42.171Z,95846.58
2019-02-17T16:21:09.711Z,95850.78
2019-02-17T16:23:37.226Z,95853.59
2019-02-17T16:26:04.661Z,95861.29
2019-02-17T16:28:32.115Z,95860.16
2019-02-17T16:30:59.598Z,95867.53
2019-02-17T16:33:27.106Z,95857.95
2019-02-17T16:35:54.579Z,95860.25
2019-02-17T16:38:22.053Z,95866.88
2019-02-17T16:40:49.795Z,95865.28
2019-02-17T16:43:17.186Z,95852.69
2019-02-17T16:45:44.667Z,95865.58
2019-02-17T16:48:12.118Z,95869.68
2019-02-17T16:50:39.684Z,95862.26
2019-02-17T16:53:07.130Z,95866.25
2019-02-17T16:55:34.570Z,95873.29
2019-02-17T16:58:02.057Z,95868.84
2019-02-17T17:00:29.693Z,95872.97
2019-02-17T17:02:58.223Z,95871.78
2019-02-17T17:05:25.803Z,95872.33
2019-02-17T17:07:53.986Z,95880.99
2019-02-17T17:10:21.779Z,95879.45
2019-02-17T17:12:49.262Z,95882.77
2019-02-17T17:15:17.158Z,95879.33
2019-02-17T17:17:44.717Z,95874.42
2019-02-17T17:20:12.890Z,95885.41
2019-02-17T17:22:40.442Z,95884.93
2019-02-17T17:25:08.334Z,95886.98
2019-02-17T17:27:35.833Z,95884.53
2019-02-17T17:30:04.039Z,95891.08
2019-02-17T17:32:31.565Z,95887.32
2019-02-17T17:34:59.519Z,95886.17
2019-02-17T17:37:27.252Z,95881.27
2019-02-17T17:39:54.751Z,95888.80
2019-02-17T17:42:22.140Z,95888.88
2019-02-17T17:44:49.604Z,95883.75
2019-02-17T17:47:17.177Z,95883.97
2019-02-17T17:49:44.552Z,95882.48
2019-02-17T17:52:12.122Z,95886.70
2019-02-17T17:54:39.572Z,95883.83
2019-02-17T17:57:07.019Z,95883.32
2019-02-17T17:59:34.530Z,95884.67
2019-02-17T18:02:01.947Z,95887.48
2019-02-17T18:04:29.365Z,95889.09
2019-02-17T18:06:57.209Z,95888.05
2019-02-17T18:09:24.841Z,95888.39
2019-02-17T18:11:52.240Z,95888.58
2019-02-17T18:14:19.752Z,95894.97
2019-02-17T18:16:47.225Z,95897.42
2019-02-17T18:19:14.670Z,95904.95
2019-02-17T18:21:42.025Z,95902.24
2019-02-17T18:24:09.480Z,95909.23
2019-02-17T18:26:36.912Z,95895.77
2019-02-17T18:29:04.350Z,95901.34
2019-02-17T18:31:31.776Z,95902.00
2019-02-17T18:33:59.215Z,95900.34
2019-02-17T18:36:26.649Z,95902.32
2019-02-17T18:38:54.100Z,95905.95
2019-02-17T18:41:21.510Z,95893.39
2019-02-17T18:43:48.970Z,95893.85
2019-02-17T18:46:16.398Z,95894.73
2019-02-17T18:48:43.811Z,95894.23
2019-02-17T18:51:11.310Z,95911.06
2019-02-17T18:53:38.907Z,95903.45
2019-02-17T18:56:06.343Z,95905.07
2019-02-17T18:58:33.809Z,95904.39
2019-02-17T19:01:01.249Z,95900.89
2019-02-17T19:03:28.685Z,95900.11
2019-02-17T19:05:56.178Z,95908.00
2019-02-17T19:08:23.740Z,95906.81
2019-02-17T19:10:52.036Z,95914.06
2019-02-17T19:13:19.508Z,95911.02
2019-02-17T19:15:47.015Z,95909.25
2019-02-17T19:18:14.443Z,95912.98
2019-02-17T19:20:42.083Z,95908.64
2019-02-17T19:23:09.581Z,95915.06
2019-02-17T19:25:37.176Z,95910.00
2019-02-17T19:28:04.749Z,95907.11
2019-02-17T19:30:32.670Z,95903.70
2019-02-17T19:33:00.090Z,95916.22
2019-02-17T19:35:27.571Z,95899.92
2019-02-17T19:37:55.116Z,95900.86
2019-02-17T19:40:22.657Z,95902.95
2019-02-17T19:42:50.136Z,95909.36
2019-02-17T19:45:18.526Z,95917.75
2019-02-17T19:47:46.015Z,95909.38
2019-02-17T19:50:13.697Z,95907.45
2019-02-17T19:52:41.317Z,95904.59
2019-02-17T19:55:10.026Z,95906.27
2019-02-17T19:57:38.939Z,95913.79
2019-02-17T20:00:10.587Z,95914.03
2019-02-17T20:02:48.767Z,95914.89
2019-02-17T20:05:18.705Z,95915.67
2019-02-17T20:07:46.278Z,95914.86
2019-02-17T20:10:13.743Z,95924.98
2019-02-17T20:12:42.522Z,95915.07
2019-02-17T20:15:09.945Z,95929.98
2019-02-17T20:17:37.624Z,95914.30
2019-02-17T20:20:05.262Z,95923.78
2019-02-17T20:22:32.751Z,95916.17
2019-02-17T20:25:00.519Z,95911.44
2019-02-17T20:27:28.097Z,95916.83
2019-02-17T20:29:56.404Z,95917.36
2019-02-17T20:32:23.993Z,95918.83
2019-02-17T20:34:51.743Z,95916.95
2019-02-17T20:37:20.821Z,95923.16
2019-02-17T20:39:48.308Z,95925.52
2019-02-17T20:42:15.832Z,95918.35
2019-02-17T20:44:43.710Z,95912.97
2019-02-17T20:47:11.128Z,95911.28
2019-02-17T20:49:38.585Z,95912.03
2019-02-17T20:52:06.758Z,95916.63
2019-02-17T20:54:34.366Z,95919.08
2019-02-17T20:57:01.996Z,95919.04
2019-02-17T20:59:29.440Z,95919.91
2019-02-17T21:01:56.908Z,95914.39
2019-02-17T21:04:24.466Z,95911.80
2019-02-17T21:06:51.993Z,95916.82
2019-02-17T21:09:19.640Z,95928.80
2019-02-17T21:11:47.580Z,95917.83
2019-02-17T21:14:15.261Z,95921.56
2019-02-17T21:16:42.887Z,95930.32
2019-02-17T21:19:10.428Z,95923.11
2019-02-17T21:21:37.896Z,95918.63
2019-02-17T21:24:05.742Z,95921.25
2019-02-17T21:26:33.210Z,95912.64
2019-02-17T21:29:00.781Z,95933.17
2019-02-17T21:31:28.887Z,95934.16
2019-02-17T21:34:08.485Z,95934.40
2019-02-17T21:36:35.993Z,95933.80
2019-02-17T21:39:04.479Z,95934.02
2019-02-17T21:41:31.893Z,95931.09
2019-02-17T21:43:59.366Z,95929.92
2019-02-17T21:46:26.947Z,95931.23
2019-02-17T21:48:54.441Z,95922.75
2019-02-17T21:51:21.875Z,95928.63
2019-02-17T21:53:49.322Z,95928.11
2019-02-17T21:56:16.896Z,95932.74
2019-02-17T21:58:44.433Z,95940.75
2019-02-17T22:01:11.876Z,95939.05
2019-02-17T22:03:39.322Z,95932.81
2019-02-17T22:06:06.768Z,95948.59
2019-02-17T22:08:34.282Z,95945.31
2019-02-17T22:11:01.781Z,95947.28
2019-02-17T22:13:29.162Z,95938.87
2019-02-17T22:15:56.597Z,95951.14
2019-02-17T22:18:24.174Z,95945.84
2019-02-17T22:20:51.657Z,95939.77
2019-02-17T22:23:19.138Z,95942.48
2019-02-17T22:25:46.650Z,95944.45
2019-02-17T22:28:14.098Z,95936.97
2019-02-17T22:30:41.600Z,95938.52
2019-02-17T22:33:09.057Z,95943.29
2019-02-17T22:35:36.509Z,95945.41
2019-02-17T22:38:03.926Z,95945.02
2019-02-17T22:40:31.384Z,95950.70
2019-02-17T22:42:58.982Z,95950.84
2019-02-17T22:45:26.493Z,95945.86
2019-02-17T22:47:53.933Z,95947.55
2019-02-17T22:50:21.344Z,95942.79
2019-02-17T22:52:48.844Z,95944.13
2019-02-17T22:55:16.353Z,95936.29
2019-02-17T22:57:43.800Z,95945.11
2019-02-17T23:00:20.342Z,95946.61
2019-02-17T23:02:47.889Z,95950.80
2019-02-17T23:05:15.292Z,95946.61
2019-02-17T23:07:42.816Z,95943.23
2019-02-17T23:10:10.632Z,95940.75
2019-02-17T23:12:38.139Z,95940.20
2019-02-17T23:15:05.671Z,95942.85
2019-02-17T23:17:33.123Z,95939.42
2019-02-17T23:20:00.696Z,95933.14
2019-02-17T23:22:28.154Z,95933.52
2019-02-17T23:24:55.846Z,95933.73
2019-02-17T23:27:23.404Z,95938.12
2019-02-17T23:29:50.918Z,95937.53
2019-02-17T23:32:18.538Z,95938.31
2019-02-17T23:34:45.919Z,95933.14
2019-02-17T23:37:13.425Z,95933.66
2019-02-17T23:39:40.872Z,95938.06
2019-02-17T23:42:08.371Z,95931.95
2019-02-17T23:44:35.880Z,95931.36
2019-02-17T23:47:03.282Z,95929.83
2019-02-17T23:49:30.718Z,95931.23
2019-02-17T23:51:58.182Z,95930.86
2019-02-17T23:54:25.633Z,95933.34
2019-02-17T23:56:53.096Z,95937.55
2019-02-17T23:59:20.594Z,95931.44
